Driscoll, Texas
Current Conditions -  °F | °C
As of 4:15 PM on Saturday 20 Dec 2014 (Local Time) from KRBO Reporting Station
Overcast Overcast  
Wind Chill: 57°   Ceiling: 1700
Heat Index: 57°   Visibility: 10mi
Dew Point: 51°   Wind: 5mph
Humidity: 82%   Direction: 350°N
Pressure: 30.15"   Gusts: NA
Location:  27.67°N, 97.75°W
Report Text: KRBO 202215Z AUTO 35004KT 10SM OVC017 14/11 A3015 RMK AO2 T01380108
Loading
Personal Weather Stations






























Interactive Weather Map New forecast layout! Learn more

10-Day Weather Forecast

Advertisements
Track Severe Weather on mobile